createdAt,value
2022-11-24T00:04:04.746Z,98885.09
2022-11-24T00:09:06.757Z,98881.63
2022-11-24T00:14:08.428Z,98880.78
2022-11-24T00:19:10.385Z,98881.88
2022-11-24T00:24:12.387Z,98893.03
2022-11-24T00:29:14.158Z,98894.34
2022-11-24T00:34:15.861Z,98896.63
2022-11-24T00:39:17.668Z,98902.38
2022-11-24T00:44:19.324Z,98903.34
2022-11-24T00:49:21.025Z,98898.06
2022-11-24T00:54:22.734Z,98903.47
2022-11-24T00:59:24.393Z,98911.47
2022-11-24T01:04:26.097Z,98912.69
2022-11-24T01:09:27.829Z,98930.28
2022-11-24T01:14:31.451Z,98934.13
2022-11-24T01:19:33.459Z,98944.16
2022-11-24T01:24:35.452Z,98945.38
2022-11-24T01:29:37.476Z,98944.06
2022-11-24T01:34:42.023Z,98944.69
2022-11-24T01:39:43.696Z,98955.56
2022-11-24T01:44:45.498Z,98955.81
2022-11-24T01:49:51.855Z,98960.84
2022-11-24T01:55:00.672Z,98954.56
2022-11-24T02:00:07.665Z,98961.03
2022-11-24T02:05:26.400Z,98961.19
2022-11-24T02:10:29.113Z,98965.16
2022-11-24T02:15:30.948Z,98971.53
2022-11-24T02:20:34.146Z,98971.88
2022-11-24T02:25:40.585Z,98978.44
2022-11-24T02:30:42.576Z,98972.69
2022-11-24T02:35:44.319Z,98967.63
2022-11-24T02:40:49.759Z,98975.91
2022-11-24T02:45:51.459Z,98980.81
2022-11-24T02:50:53.185Z,98984.06
2022-11-24T02:55:54.854Z,98982.28
2022-11-24T03:00:57.352Z,98980.78
2022-11-24T03:05:59.034Z,98979.97
2022-11-24T03:11:02.947Z,98992.28
2022-11-24T03:16:08.524Z,98987.41
2022-11-24T03:21:10.206Z,98990.22
2022-11-24T03:26:14.854Z,98994.28
2022-11-24T03:31:16.701Z,99000.00
2022-11-24T03:36:18.739Z,98997.72
2022-11-24T03:41:20.466Z,99000.66
2022-11-24T03:46:22.213Z,99002.44
2022-11-24T03:51:23.902Z,99003.97
2022-11-24T03:56:25.568Z,99019.06
2022-11-24T04:01:27.315Z,99008.72
2022-11-24T04:06:29.060Z,99015.41
2022-11-24T04:11:48.987Z,99026.13
2022-11-24T04:16:50.649Z,99032.84
2022-11-24T04:21:52.329Z,99026.53
2022-11-24T04:26:54.543Z,99039.31
2022-11-24T04:31:56.245Z,99046.31
2022-11-24T04:36:57.983Z,99050.34
2022-11-24T04:41:59.887Z,99060.28
2022-11-24T04:47:01.606Z,99064.59
2022-11-24T04:52:03.382Z,99066.06
2022-11-24T04:57:05.051Z,99071.50
2022-11-24T05:02:06.787Z,99082.69
2022-11-24T05:07:18.268Z,99085.25
2022-11-24T05:12:20.582Z,99082.81
2022-11-24T05:17:22.231Z,99093.34
2022-11-24T05:22:24.476Z,99093.88
2022-11-24T05:27:26.172Z,99102.50
2022-11-24T05:32:28.043Z,99108.13
2022-11-24T05:37:29.807Z,99104.19
2022-11-24T05:42:46.162Z,99111.06
2022-11-24T05:47:50.701Z,99117.69
2022-11-24T05:52:52.451Z,99130.13
2022-11-24T05:58:06.083Z,99124.91
2022-11-24T06:03:09.984Z,99127.16
2022-11-24T06:08:11.792Z,99136.41
2022-11-24T06:13:13.485Z,99148.31
2022-11-24T06:18:15.416Z,99154.56
2022-11-24T06:23:17.088Z,99162.47
2022-11-24T06:28:18.738Z,99165.09
2022-11-24T06:33:20.775Z,99167.03
2022-11-24T06:38:24.411Z,99172.41
2022-11-24T06:43:27.982Z,99180.94
2022-11-24T06:48:30.509Z,99184.94
2022-11-24T06:53:37.971Z,99189.22
2022-11-24T06:58:44.596Z,99194.59
2022-11-24T07:03:48.233Z,99183.13
2022-11-24T07:08:50.836Z,99194.91
2022-11-24T07:13:58.178Z,99200.41
2022-11-24T07:19:01.539Z,99201.22
2022-11-24T07:24:03.425Z,99208.31
2022-11-24T07:29:05.502Z,99214.13
2022-11-24T07:34:07.171Z,99206.88
2022-11-24T07:39:08.859Z,99224.16
2022-11-24T07:44:10.520Z,99228.50
2022-11-24T07:49:12.247Z,99227.59
2022-11-24T07:54:13.963Z,99233.56
2022-11-24T07:59:15.888Z,99242.28
2022-11-24T08:04:17.534Z,99230.47
2022-11-24T08:09:19.205Z,99237.84
2022-11-24T08:14:20.913Z,99233.94
2022-11-24T08:19:22.717Z,99243.78
2022-11-24T08:24:24.438Z,99241.81
2022-11-24T08:29:30.017Z,99244.34
2022-11-24T08:34:31.835Z,99251.41
2022-11-24T08:39:33.852Z,99245.38
2022-11-24T08:44:35.974Z,99242.78
2022-11-24T08:49:37.906Z,99246.03
2022-11-24T08:54:40.860Z,99241.34
2022-11-24T08:59:42.533Z,99258.34
2022-11-24T09:04:45.061Z,99251.78
2022-11-24T09:09:46.766Z,99257.03
2022-11-24T09:14:48.420Z,99250.97
2022-11-24T09:19:50.086Z,99254.56
2022-11-24T09:24:51.827Z,99258.22
2022-11-24T09:29:53.572Z,99259.53
2022-11-24T09:34:55.265Z,99251.13
2022-11-24T09:39:56.926Z,99252.03
2022-11-24T09:45:15.285Z,99260.34
2022-11-24T09:50:24.164Z,99261.81
2022-11-24T09:55:31.679Z,99260.94
2022-11-24T10:00:34.101Z,99259.25
2022-11-24T10:05:36.591Z,99266.91
2022-11-24T10:10:49.090Z,99266.06
2022-11-24T10:16:13.748Z,99265.88
2022-11-24T10:21:33.380Z,99275.75
2022-11-24T10:26:36.471Z,99275.56
2022-11-24T10:31:43.520Z,99276.16
2022-11-24T10:37:15.223Z,99272.03
2022-11-24T10:42:33.647Z,99277.22
2022-11-24T10:47:37.683Z,99274.59
2022-11-24T10:52:47.782Z,99276.94
2022-11-24T10:57:49.633Z,99268.94
2022-11-24T11:03:12.016Z,99264.50
2022-11-24T11:08:14.069Z,99265.41
2022-11-24T11:13:23.704Z,99270.59
2022-11-24T11:18:32.752Z,99265.34
2022-11-24T11:23:36.742Z,99273.00
2022-11-24T11:28:39.149Z,99277.47
2022-11-24T11:34:14.460Z,99272.78
2022-11-24T11:39:20.633Z,99267.53
2022-11-24T11:44:25.076Z,99279.66
2022-11-24T11:49:26.848Z,99281.22
2022-11-24T11:54:43.113Z,99275.22
2022-11-24T11:59:50.610Z,99280.34
2022-11-24T12:04:56.796Z,99285.19
2022-11-24T12:10:07.527Z,99279.31
2022-11-24T12:15:15.399Z,99282.75
2022-11-24T12:20:58.795Z,99284.44
2022-11-24T12:26:29.776Z,99293.31
2022-11-24T12:32:00.446Z,99294.31
2022-11-24T12:37:25.188Z,99298.66
2022-11-24T12:42:57.444Z,99298.13
2022-11-24T12:48:13.908Z,99305.59
2022-11-24T12:53:29.382Z,99302.41
2022-11-24T12:58:40.010Z,99304.41
2022-11-24T13:03:41.640Z,99311.31
2022-11-24T13:08:43.967Z,99313.47
2022-11-24T13:14:02.845Z,99314.66
2022-11-24T13:19:30.472Z,99315.00
2022-11-24T13:24:36.357Z,99327.50
2022-11-24T13:29:40.337Z,99324.19
2022-11-24T13:34:42.872Z,99331.22
2022-11-24T13:39:51.570Z,99335.94
2022-11-24T13:45:03.820Z,99342.66
2022-11-24T13:50:45.396Z,99345.84
2022-11-24T13:55:56.564Z,99337.81
2022-11-24T14:01:13.640Z,99343.53
2022-11-24T14:06:46.388Z,99347.06
2022-11-24T14:11:58.318Z,99353.72
2022-11-24T14:17:08.772Z,99365.28
2022-11-24T14:22:17.578Z,99368.13
2022-11-24T14:27:26.771Z,99369.81
2022-11-24T14:32:28.870Z,99377.53
2022-11-24T14:37:30.628Z,99381.03
2022-11-24T14:42:33.317Z,99380.88
2022-11-24T14:47:37.454Z,99387.41
2022-11-24T14:52:46.459Z,99397.78
2022-11-24T14:57:48.297Z,99413.81
2022-11-24T15:03:02.115Z,99415.16
2022-11-24T15:08:04.041Z,99417.81
2022-11-24T15:13:16.890Z,99428.84
2022-11-24T15:18:35.451Z,99430.31
2022-11-24T15:23:37.875Z,99425.34
2022-11-24T15:28:40.134Z,99436.34
2022-11-24T15:33:42.402Z,99441.31
2022-11-24T15:38:44.131Z,99449.91
2022-11-24T15:43:46.595Z,99456.66
2022-11-24T15:48:48.253Z,99452.53
2022-11-24T15:53:55.774Z,99459.78
2022-11-24T15:59:02.558Z,99469.25
2022-11-24T16:04:04.390Z,99469.28
2022-11-24T16:09:06.051Z,99476.72
2022-11-24T16:14:08.891Z,99473.59
2022-11-24T16:19:10.925Z,99484.66
2022-11-24T16:24:12.611Z,99486.25
2022-11-24T16:29:15.036Z,99482.09
2022-11-24T16:34:16.743Z,99492.56
2022-11-24T16:39:18.419Z,99495.44
2022-11-24T16:44:20.117Z,99505.47
2022-11-24T16:49:22.084Z,99505.47
2022-11-24T16:54:23.904Z,99502.47
2022-11-24T16:59:25.615Z,99504.84
2022-11-24T17:04:27.264Z,99503.81
2022-11-24T17:09:28.923Z,99509.50
2022-11-24T17:14:30.693Z,99512.72
2022-11-24T17:19:32.368Z,99519.50
2022-11-24T17:24:34.254Z,99516.91
2022-11-24T17:29:36.017Z,99531.53
2022-11-24T17:34:37.745Z,99536.28
2022-11-24T17:39:39.433Z,99534.97
2022-11-24T17:44:41.089Z,99540.91
2022-11-24T17:49:42.758Z,99543.97
2022-11-24T17:54:46.649Z,99547.97
2022-11-24T17:59:48.631Z,99547.97
2022-11-24T18:04:50.329Z,99548.56
2022-11-24T18:09:52.003Z,99554.22
2022-11-24T18:14:53.711Z,99564.56
2022-11-24T18:19:55.385Z,99568.50
2022-11-24T18:24:57.038Z,99575.41
2022-11-24T18:29:58.698Z,99574.50
2022-11-24T18:35:00.491Z,99580.09
2022-11-24T18:40:02.581Z,99580.09
2022-11-24T18:45:05.375Z,99588.53
2022-11-24T18:50:08.030Z,99575.59
2022-11-24T18:55:10.096Z,99583.13
2022-11-24T19:00:12.497Z,99584.72
2022-11-24T19:05:14.304Z,99590.25
2022-11-24T19:10:16.153Z,99595.34
2022-11-24T19:15:17.816Z,99591.94
2022-11-24T19:20:19.464Z,99584.63
2022-11-24T19:25:21.310Z,99598.69
2022-11-24T19:30:23.481Z,99598.16
2022-11-24T19:35:25.155Z,99600.41
2022-11-24T19:40:26.887Z,99604.41
2022-11-24T19:45:28.840Z,99603.94
2022-11-24T19:50:30.518Z,99606.72
2022-11-24T19:55:32.427Z,99611.81
2022-11-24T20:00:34.080Z,99614.84
2022-11-24T20:05:35.715Z,99621.44
2022-11-24T20:10:39.907Z,99628.72
2022-11-24T20:15:41.570Z,99630.28
2022-11-24T20:20:43.236Z,99634.63
2022-11-24T20:25:44.906Z,99648.94
2022-11-24T20:30:46.598Z,99641.03
2022-11-24T20:35:48.258Z,99654.44
2022-11-24T20:40:49.998Z,99654.81
2022-11-24T20:45:51.678Z,99655.59
2022-11-24T20:50:53.364Z,99660.22
2022-11-24T20:56:06.109Z,99663.84
2022-11-24T21:01:09.959Z,99658.28
2022-11-24T21:06:13.335Z,99664.47
2022-11-24T21:11:15.523Z,99661.69
2022-11-24T21:16:20.581Z,99677.19
2022-11-24T21:21:24.159Z,99677.13
2022-11-24T21:26:25.813Z,99677.59
2022-11-24T21:31:27.561Z,99680.72
2022-11-24T21:36:31.675Z,99677.94
2022-11-24T21:41:33.920Z,99681.97
2022-11-24T21:46:43.584Z,99686.78
2022-11-24T21:51:47.810Z,99683.97
2022-11-24T21:56:49.465Z,99698.69
2022-11-24T22:01:51.285Z,99695.47
2022-11-24T22:06:53.510Z,99698.97
2022-11-24T22:11:55.732Z,99696.28
2022-11-24T22:16:57.399Z,99704.44
2022-11-24T22:21:59.047Z,99701.41
2022-11-24T22:27:02.927Z,99709.22
2022-11-24T22:32:04.839Z,99710.06
2022-11-24T22:37:06.625Z,99712.44
2022-11-24T22:42:08.280Z,99721.03
2022-11-24T22:47:10.075Z,99723.13
2022-11-24T22:52:14.422Z,99723.28
2022-11-24T22:57:16.075Z,99734.63
2022-11-24T23:02:18.369Z,99743.22
2022-11-24T23:07:20.119Z,99744.66
2022-11-24T23:12:21.813Z,99747.63
2022-11-24T23:17:23.472Z,99740.72
2022-11-24T23:22:25.137Z,99748.16
2022-11-24T23:27:26.836Z,99758.09
2022-11-24T23:32:28.540Z,99750.22
2022-11-24T23:37:52.152Z,99750.50
2022-11-24T23:42:52.131Z,99743.09
2022-11-24T23:47:54.178Z,99751.63
2022-11-24T23:52:55.840Z,99747.25
2022-11-24T23:57:57.523Z,99753.97
